createdAt,value
2023-01-13T00:02:43.439Z,88537.91
2023-01-13T00:05:28.066Z,88535.34
2023-01-13T00:08:12.936Z,88547.56
2023-01-13T00:10:57.616Z,88537.66
2023-01-13T00:13:42.547Z,88530.34
2023-01-13T00:16:27.290Z,88535.19
2023-01-13T00:19:11.964Z,88518.25
2023-01-13T00:21:56.805Z,88517.97
2023-01-13T00:24:41.595Z,88516.94
2023-01-13T00:27:26.451Z,88509.44
2023-01-13T00:30:11.059Z,88511.09
2023-01-13T00:32:55.879Z,88501.25
2023-01-13T00:35:40.475Z,88490.66
2023-01-13T00:38:25.223Z,88492.44
2023-01-13T00:41:09.981Z,88494.84
2023-01-13T00:43:54.834Z,88495.41
2023-01-13T00:46:39.708Z,88505.81
2023-01-13T00:49:24.848Z,88493.66
2023-01-13T00:52:09.758Z,88500.03
2023-01-13T00:54:54.478Z,88502.66
2023-01-13T00:57:39.420Z,88493.75
2023-01-13T01:00:24.041Z,88498.03
2023-01-13T01:03:08.951Z,88500.38
2023-01-13T01:05:53.710Z,88500.41
2023-01-13T01:08:38.417Z,88502.75
2023-01-13T01:11:23.120Z,88495.00
2023-01-13T01:14:07.901Z,88489.66
2023-01-13T01:16:52.960Z,88504.88
2023-01-13T01:19:38.086Z,88494.56
2023-01-13T01:22:22.834Z,88507.72
2023-01-13T01:25:07.578Z,88511.00
2023-01-13T01:27:52.442Z,88514.31
2023-01-13T01:30:37.175Z,88512.19
2023-01-13T01:33:21.939Z,88505.38
2023-01-13T01:36:06.662Z,88493.66
2023-01-13T01:38:51.546Z,88496.03
2023-01-13T01:41:36.244Z,88492.75
2023-01-13T01:44:20.952Z,88486.63
2023-01-13T01:47:05.726Z,88497.59
2023-01-13T01:49:50.435Z,88495.00
2023-01-13T01:52:35.365Z,88504.19
2023-01-13T01:55:20.148Z,88500.16
2023-01-13T01:58:04.912Z,88501.81
2023-01-13T02:00:49.615Z,88508.13
2023-01-13T02:03:34.369Z,88494.06
2023-01-13T02:06:19.040Z,88499.66
2023-01-13T02:09:03.849Z,88506.25
2023-01-13T02:11:48.653Z,88500.16
2023-01-13T02:14:33.392Z,88501.56
2023-01-13T02:17:18.116Z,88500.38
2023-01-13T02:20:02.788Z,88494.72
2023-01-13T02:22:47.603Z,88475.03
2023-01-13T02:25:32.301Z,88482.97
2023-01-13T02:28:17.008Z,88478.44
2023-01-13T02:31:01.846Z,88467.59
2023-01-13T02:33:46.549Z,88459.38
2023-01-13T02:36:31.218Z,88459.41
2023-01-13T02:39:15.964Z,88461.22
2023-01-13T02:42:00.639Z,88466.19
2023-01-13T02:44:45.412Z,88461.72
2023-01-13T02:47:30.227Z,88456.31
2023-01-13T02:50:14.945Z,88456.84
2023-01-13T02:52:59.728Z,88463.59
2023-01-13T02:55:44.469Z,88470.88
2023-01-13T02:58:29.315Z,88476.53
2023-01-13T03:01:14.095Z,88489.22
2023-01-13T03:03:59.327Z,88503.56
2023-01-13T03:06:44.040Z,88512.00
2023-01-13T03:09:28.741Z,88480.81
2023-01-13T03:12:13.333Z,88498.22
2023-01-13T03:14:58.122Z,88497.22
2023-01-13T03:17:42.896Z,88479.13
2023-01-13T03:20:27.661Z,88492.03
2023-01-13T03:23:12.571Z,88487.50
2023-01-13T03:25:57.323Z,88510.06
2023-01-13T03:28:42.158Z,88513.59
2023-01-13T03:31:26.851Z,88510.56
2023-01-13T03:34:11.618Z,88508.22
2023-01-13T03:36:56.284Z,88486.88
2023-01-13T03:39:41.125Z,88487.81
2023-01-13T03:42:25.906Z,88480.03
2023-01-13T03:45:10.553Z,88464.47
2023-01-13T03:47:55.269Z,88460.97
2023-01-13T03:50:40.024Z,88475.06
2023-01-13T03:53:24.787Z,88462.22
2023-01-13T03:56:09.938Z,88487.13
2023-01-13T03:58:54.785Z,88504.00
2023-01-13T04:01:39.678Z,88505.66
2023-01-13T04:04:24.993Z,88506.16
2023-01-13T04:07:09.750Z,88509.44
2023-01-13T04:09:54.588Z,88509.25
2023-01-13T04:12:39.413Z,88512.28
2023-01-13T04:15:24.147Z,88516.28
2023-01-13T04:18:09.517Z,88521.91
2023-01-13T04:20:54.272Z,88532.47
2023-01-13T04:23:39.088Z,88535.50
2023-01-13T04:26:23.879Z,88546.75
2023-01-13T04:29:08.560Z,88555.44
2023-01-13T04:31:53.265Z,88562.72
2023-01-13T04:34:38.172Z,88587.41
2023-01-13T04:37:22.892Z,88609.69
2023-01-13T04:40:07.652Z,88600.56
2023-01-13T04:42:52.482Z,88591.66
2023-01-13T04:45:37.206Z,88610.22
2023-01-13T04:48:22.022Z,88608.34
2023-01-13T04:51:06.710Z,88598.22
2023-01-13T04:53:51.485Z,88596.50
2023-01-13T04:56:36.252Z,88602.13
2023-01-13T04:59:21.111Z,88604.25
2023-01-13T05:02:05.880Z,88610.38
2023-01-13T05:04:50.637Z,88611.72
2023-01-13T05:07:35.382Z,88606.97
2023-01-13T05:10:21.953Z,88611.91
2023-01-13T05:13:08.236Z,88609.56
2023-01-13T05:15:53.065Z,88609.38
2023-01-13T05:18:37.866Z,88618.97
2023-01-13T05:21:22.487Z,88610.28
2023-01-13T05:24:07.284Z,88597.53
2023-01-13T05:26:52.125Z,88605.91
2023-01-13T05:29:36.957Z,88600.91
2023-01-13T05:32:21.771Z,88595.41
2023-01-13T05:35:06.556Z,88598.47
2023-01-13T05:37:51.354Z,88602.50
2023-01-13T05:40:35.999Z,88616.22
2023-01-13T05:43:20.863Z,88622.84
2023-01-13T05:46:05.760Z,88613.41
2023-01-13T05:48:51.019Z,88628.66
2023-01-13T05:51:35.608Z,88625.28
2023-01-13T05:54:20.574Z,88625.47
2023-01-13T05:57:05.370Z,88630.19
2023-01-13T05:59:50.144Z,88636.06
2023-01-13T06:02:34.966Z,88646.94
2023-01-13T06:05:19.578Z,88651.88
2023-01-13T06:08:04.399Z,88657.72
2023-01-13T06:10:49.028Z,88665.84
2023-01-13T06:13:33.781Z,88662.09
2023-01-13T06:16:18.668Z,88655.25
2023-01-13T06:19:03.980Z,88671.03
2023-01-13T06:21:48.698Z,88665.63
2023-01-13T06:24:33.411Z,88658.28
2023-01-13T06:27:18.285Z,88661.06
2023-01-13T06:30:03.272Z,88658.97
2023-01-13T06:32:48.284Z,88661.16
2023-01-13T06:35:32.837Z,88666.19
2023-01-13T06:38:17.849Z,88670.94
2023-01-13T06:41:02.593Z,88668.16
2023-01-13T06:43:47.324Z,88665.63
2023-01-13T06:46:32.076Z,88658.84
2023-01-13T06:49:17.211Z,88645.19
2023-01-13T06:52:02.200Z,88639.78
2023-01-13T06:54:46.901Z,88629.91
2023-01-13T06:57:31.779Z,88635.81
2023-01-13T07:00:16.335Z,88636.06
2023-01-13T07:03:01.191Z,88630.63
2023-01-13T07:05:45.820Z,88623.81
2023-01-13T07:08:30.682Z,88621.69
2023-01-13T07:11:15.452Z,88630.63
2023-01-13T07:14:00.219Z,88630.88
2023-01-13T07:16:44.970Z,88637.44
2023-01-13T07:19:30.142Z,88638.38
2023-01-13T07:22:14.959Z,88633.66
2023-01-13T07:24:59.862Z,88641.66
2023-01-13T07:27:44.629Z,88629.91
2023-01-13T07:30:29.395Z,88625.19
2023-01-13T07:33:14.053Z,88618.28
2023-01-13T07:35:58.779Z,88621.56
2023-01-13T07:38:43.681Z,88621.75
2023-01-13T07:41:28.590Z,88613.47
2023-01-13T07:44:13.815Z,88595.59
2023-01-13T07:46:58.636Z,88585.03
2023-01-13T07:49:43.388Z,88573.72
2023-01-13T07:52:28.225Z,88579.78
2023-01-13T07:55:13.016Z,88578.59
2023-01-13T07:57:57.671Z,88586.78
2023-01-13T08:00:42.489Z,88586.06
2023-01-13T08:03:27.289Z,88591.94
2023-01-13T08:06:11.973Z,88596.63
2023-01-13T08:08:56.789Z,88601.84
2023-01-13T08:11:41.463Z,88622.81
2023-01-13T08:14:26.413Z,88622.38
2023-01-13T08:17:11.250Z,88632.50
2023-01-13T08:19:55.888Z,88627.78
2023-01-13T08:22:40.875Z,88631.56
2023-01-13T08:25:25.620Z,88640.00
2023-01-13T08:28:10.419Z,88642.81
2023-01-13T08:30:55.133Z,88642.78
2023-01-13T08:33:39.812Z,88653.38
2023-01-13T08:36:24.521Z,88657.59
2023-01-13T08:39:09.207Z,88666.25
2023-01-13T08:41:53.852Z,88671.66
2023-01-13T08:44:38.731Z,88670.75
2023-01-13T08:47:23.404Z,88675.75
2023-01-13T08:50:08.407Z,88685.66
2023-01-13T08:52:53.338Z,88695.34
2023-01-13T08:55:38.112Z,88695.16
2023-01-13T08:58:22.909Z,88701.50
2023-01-13T09:01:07.674Z,88704.56
2023-01-13T09:03:54.065Z,88710.66
2023-01-13T09:06:39.307Z,88703.59
2023-01-13T09:09:24.080Z,88707.78
2023-01-13T09:12:08.760Z,88704.97
2023-01-13T09:14:53.481Z,88707.06
2023-01-13T09:17:38.418Z,88701.38
2023-01-13T09:20:23.107Z,88703.72
2023-01-13T09:23:10.380Z,88713.78
2023-01-13T09:25:55.832Z,88709.06
2023-01-13T09:28:40.470Z,88698.41
2023-01-13T09:31:25.235Z,88710.09
2023-01-13T09:34:09.805Z,88709.50
2023-01-13T09:36:54.709Z,88703.81
2023-01-13T09:39:39.367Z,88703.25
2023-01-13T09:42:24.151Z,88698.50
2023-01-13T09:45:08.743Z,88690.47
2023-01-13T09:47:53.437Z,88697.44
2023-01-13T09:50:38.237Z,88691.63
2023-01-13T09:53:22.881Z,88687.72
2023-01-13T09:56:07.690Z,88684.16
2023-01-13T09:58:52.662Z,88691.63
2023-01-13T10:01:37.330Z,88693.06
2023-01-13T10:04:22.096Z,88677.72
2023-01-13T10:07:06.820Z,88672.75
2023-01-13T10:09:51.622Z,88666.44
2023-01-13T10:12:36.488Z,88662.03
2023-01-13T10:15:21.259Z,88667.16
2023-01-13T10:18:06.055Z,88654.63
2023-01-13T10:20:50.716Z,88659.31
2023-01-13T10:23:35.509Z,88669.03
2023-01-13T10:26:20.267Z,88664.13
2023-01-13T10:29:04.997Z,88664.50
2023-01-13T10:31:49.835Z,88667.09
2023-01-13T10:34:34.770Z,88651.47
2023-01-13T10:37:19.823Z,88655.66
2023-01-13T10:40:04.492Z,88650.41
2023-01-13T10:42:49.453Z,88646.69
2023-01-13T10:45:34.046Z,88646.38
2023-01-13T10:48:18.867Z,88639.09
2023-01-13T10:51:03.621Z,88636.66
2023-01-13T10:53:48.392Z,88643.25
2023-01-13T10:56:33.126Z,88640.94
2023-01-13T10:59:17.824Z,88651.25
2023-01-13T11:02:12.965Z,88647.41
2023-01-13T11:05:04.592Z,88634.50
2023-01-13T11:07:49.350Z,88644.06
2023-01-13T11:10:34.033Z,88642.97
2023-01-13T11:13:18.771Z,88626.94
2023-01-13T11:16:03.605Z,88633.03
2023-01-13T11:18:48.397Z,88624.69
2023-01-13T11:21:33.011Z,88627.94
2023-01-13T11:24:17.866Z,88616.75
2023-01-13T11:27:02.613Z,88625.47
2023-01-13T11:29:47.299Z,88609.13
2023-01-13T11:32:32.111Z,88611.81
2023-01-13T11:35:16.800Z,88604.09
2023-01-13T11:38:01.612Z,88598.06
2023-01-13T11:40:46.339Z,88597.38
2023-01-13T11:43:31.139Z,88603.03
2023-01-13T11:46:15.846Z,88612.00
2023-01-13T11:49:00.509Z,88608.25
2023-01-13T11:51:45.309Z,88605.38
2023-01-13T11:54:30.188Z,88603.03
2023-01-13T11:57:14.805Z,88592.94
2023-01-13T11:59:59.608Z,88590.50
2023-01-13T12:02:44.670Z,88585.03
2023-01-13T12:05:29.480Z,88586.78
2023-01-13T12:08:14.263Z,88587.00
2023-01-13T12:10:58.950Z,88570.22
2023-01-13T12:13:43.779Z,88556.69
2023-01-13T12:16:28.863Z,88567.22
2023-01-13T12:19:13.997Z,88548.06
2023-01-13T12:21:58.761Z,88557.13
2023-01-13T12:24:43.445Z,88580.69
2023-01-13T12:27:28.062Z,88551.59
2023-01-13T12:30:12.955Z,88568.22
2023-01-13T12:32:58.228Z,88581.03
2023-01-13T12:35:42.945Z,88556.38
2023-01-13T12:38:27.825Z,88563.19
2023-01-13T12:41:12.585Z,88559.16
2023-01-13T12:43:57.205Z,88559.44
2023-01-13T12:46:41.912Z,88558.50
2023-01-13T12:49:26.643Z,88564.22
2023-01-13T12:52:11.425Z,88571.19
2023-01-13T12:54:56.154Z,88564.59
2023-01-13T12:57:41.323Z,88566.53
2023-01-13T13:00:26.080Z,88562.66
2023-01-13T13:03:10.740Z,88558.66
2023-01-13T13:05:55.395Z,88554.94
2023-01-13T13:08:40.237Z,88560.88
2023-01-13T13:11:25.066Z,88562.88
2023-01-13T13:14:10.018Z,88573.25
2023-01-13T13:16:54.835Z,88571.03
2023-01-13T13:19:39.936Z,88569.34
2023-01-13T13:22:24.808Z,88559.16
2023-01-13T13:25:09.495Z,88558.13
2023-01-13T13:27:54.323Z,88549.13
2023-01-13T13:30:39.009Z,88551.13
2023-01-13T13:33:23.677Z,88543.03
2023-01-13T13:36:08.311Z,88551.44
2023-01-13T13:38:53.131Z,88547.22
2023-01-13T13:41:38.398Z,88552.66
2023-01-13T13:44:23.153Z,88562.44
2023-01-13T13:47:07.963Z,88557.84
2023-01-13T13:49:52.602Z,88561.03
2023-01-13T13:52:37.365Z,88562.22
2023-01-13T13:55:22.080Z,88572.16
2023-01-13T13:58:06.858Z,88594.94
2023-01-13T14:00:51.603Z,88596.94
2023-01-13T14:03:39.040Z,88600.34
2023-01-13T14:06:25.108Z,88585.84
2023-01-13T14:09:09.794Z,88568.25
2023-01-13T14:11:54.579Z,88560.38
2023-01-13T14:14:39.340Z,88568.63
2023-01-13T14:17:24.149Z,88579.22
2023-01-13T14:20:09.020Z,88559.03
2023-01-13T14:22:53.747Z,88562.75
2023-01-13T14:25:38.427Z,88580.56
2023-01-13T14:28:23.141Z,88591.47
2023-01-13T14:31:07.906Z,88601.41
2023-01-13T14:33:53.100Z,88597.94
2023-01-13T14:36:37.923Z,88605.34
2023-01-13T14:39:22.684Z,88615.69
2023-01-13T14:42:07.630Z,88618.91
2023-01-13T14:44:52.263Z,88612.41
2023-01-13T14:47:37.041Z,88616.34
2023-01-13T14:50:21.810Z,88610.69
2023-01-13T14:53:06.658Z,88608.22
2023-01-13T14:55:51.420Z,88590.13
2023-01-13T14:58:36.069Z,88599.84
2023-01-13T15:01:20.903Z,88598.78
2023-01-13T15:04:06.127Z,88606.38
2023-01-13T15:06:50.842Z,88617.59
2023-01-13T15:09:35.522Z,88623.84
2023-01-13T15:12:20.408Z,88619.97
2023-01-13T15:15:05.055Z,88626.97
2023-01-13T15:17:50.439Z,88624.31
2023-01-13T15:20:35.221Z,88631.31
2023-01-13T15:23:19.980Z,88626.03
2023-01-13T15:26:04.826Z,88644.63
2023-01-13T15:28:49.538Z,88653.25
2023-01-13T15:31:34.393Z,88660.50
2023-01-13T15:34:19.160Z,88668.59
2023-01-13T15:37:04.030Z,88683.81
2023-01-13T15:39:48.690Z,88697.91
2023-01-13T15:42:33.668Z,88707.56
2023-01-13T15:45:18.356Z,88704.59
2023-01-13T15:48:03.244Z,88697.56
2023-01-13T15:50:48.019Z,88706.59
2023-01-13T15:53:33.225Z,88708.44
2023-01-13T15:56:17.921Z,88699.19
2023-01-13T15:59:02.692Z,88705.81
2023-01-13T16:01:47.556Z,88701.97
2023-01-13T16:04:32.259Z,88718.44
2023-01-13T16:07:17.044Z,88719.09
2023-01-13T16:10:01.673Z,88710.16
2023-01-13T16:12:46.602Z,88713.25
2023-01-13T16:15:31.296Z,88718.50
2023-01-13T16:18:16.120Z,88726.28
2023-01-13T16:21:00.834Z,88722.72
2023-01-13T16:23:45.863Z,88724.53
2023-01-13T16:26:30.456Z,88727.13
2023-01-13T16:29:15.265Z,88741.50
2023-01-13T16:32:00.252Z,88732.28
2023-01-13T16:34:45.072Z,88748.38
2023-01-13T16:37:29.784Z,88758.53
2023-01-13T16:40:14.552Z,88761.66
2023-01-13T16:42:59.503Z,88774.53
2023-01-13T16:45:44.341Z,88766.09
2023-01-13T16:48:29.119Z,88770.50
2023-01-13T16:51:13.861Z,88752.16
2023-01-13T16:53:58.638Z,88764.91
2023-01-13T16:56:43.442Z,88772.25
2023-01-13T16:59:28.124Z,88772.91
2023-01-13T17:02:13.035Z,88776.69
2023-01-13T17:04:57.700Z,88780.63
2023-01-13T17:07:42.469Z,88779.44
2023-01-13T17:10:27.257Z,88773.34
2023-01-13T17:13:16.468Z,88769.34
2023-01-13T17:16:01.966Z,88771.28
2023-01-13T17:18:48.160Z,88784.97
2023-01-13T17:21:33.231Z,88778.13
2023-01-13T17:24:17.968Z,88779.44
2023-01-13T17:27:02.621Z,88788.84
2023-01-13T17:29:47.427Z,88795.66
2023-01-13T17:32:32.271Z,88792.13
2023-01-13T17:35:17.088Z,88797.78
2023-01-13T17:38:01.817Z,88802.34
2023-01-13T17:40:46.545Z,88807.38
2023-01-13T17:43:31.204Z,88807.44
2023-01-13T17:46:16.036Z,88805.91
2023-01-13T17:49:00.720Z,88814.16
2023-01-13T17:51:45.623Z,88812.25
2023-01-13T17:54:30.294Z,88825.94
2023-01-13T17:57:15.109Z,88815.16
2023-01-13T17:59:59.781Z,88822.00
2023-01-13T18:02:44.408Z,88825.97
2023-01-13T18:05:29.115Z,88844.34
2023-01-13T18:08:13.806Z,88834.00
2023-01-13T18:10:58.607Z,88840.63
2023-01-13T18:13:43.278Z,88841.84
2023-01-13T18:16:30.385Z,88849.38
2023-01-13T18:19:15.349Z,88849.19
2023-01-13T18:22:00.203Z,88844.69
2023-01-13T18:24:45.040Z,88834.81
2023-01-13T18:27:29.845Z,88841.66
2023-01-13T18:30:14.770Z,88844.22
2023-01-13T18:32:59.593Z,88847.47
2023-01-13T18:35:44.441Z,88843.72
2023-01-13T18:38:29.230Z,88844.44
2023-01-13T18:41:14.047Z,88840.63
2023-01-13T18:43:58.785Z,88843.00
2023-01-13T18:46:43.473Z,88846.69
2023-01-13T18:49:28.087Z,88845.03
2023-01-13T18:52:12.800Z,88845.13
2023-01-13T18:54:57.709Z,88856.97
2023-01-13T18:57:42.413Z,88860.75
2023-01-13T19:00:27.289Z,88862.84
2023-01-13T19:03:12.114Z,88853.88
2023-01-13T19:05:56.904Z,88859.38
2023-01-13T19:08:41.499Z,88863.78
2023-01-13T19:11:26.230Z,88866.88
2023-01-13T19:14:10.953Z,88866.19
2023-01-13T19:16:55.655Z,88860.97
2023-01-13T19:19:40.297Z,88857.91
2023-01-13T19:22:25.206Z,88865.03
2023-01-13T19:25:10.197Z,88859.91
2023-01-13T19:27:54.955Z,88861.78
2023-01-13T19:30:39.829Z,88866.66
2023-01-13T19:33:24.586Z,88864.50
2023-01-13T19:36:09.407Z,88868.03
2023-01-13T19:38:54.103Z,88868.03
2023-01-13T19:41:39.041Z,88875.13
2023-01-13T19:44:23.836Z,88881.75
2023-01-13T19:47:08.710Z,88885.09
2023-01-13T19:49:53.502Z,88886.50
2023-01-13T19:52:38.317Z,88905.81
2023-01-13T19:55:23.165Z,88902.97
2023-01-13T19:58:07.896Z,88903.47
2023-01-13T20:00:52.722Z,88904.41
2023-01-13T20:03:37.404Z,88910.06
2023-01-13T20:06:22.266Z,88909.38
2023-01-13T20:09:06.836Z,88908.66
2023-01-13T20:11:51.675Z,88905.13
2023-01-13T20:14:36.356Z,88917.38
2023-01-13T20:17:21.132Z,88915.75
2023-01-13T20:20:05.859Z,88924.25
2023-01-13T20:22:50.639Z,88930.09
2023-01-13T20:25:35.498Z,88931.09
2023-01-13T20:28:20.639Z,88942.34
2023-01-13T20:31:05.494Z,88947.78
2023-01-13T20:33:50.112Z,88946.84
2023-01-13T20:36:35.080Z,88948.25
2023-01-13T20:39:19.739Z,88942.16
2023-01-13T20:42:04.682Z,88954.16
2023-01-13T20:44:49.395Z,88953.94
2023-01-13T20:47:34.181Z,88959.81
2023-01-13T20:50:18.923Z,88957.91
2023-01-13T20:53:03.705Z,88957.69
2023-01-13T20:55:48.548Z,88953.44
2023-01-13T20:58:33.174Z,88955.53
2023-01-13T21:01:18.105Z,88948.00
2023-01-13T21:04:03.267Z,88942.13
2023-01-13T21:06:47.952Z,88953.44
2023-01-13T21:09:32.708Z,88964.25
2023-01-13T21:12:20.423Z,88961.22
2023-01-13T21:15:05.240Z,88965.69
2023-01-13T21:17:49.906Z,88966.13
2023-01-13T21:20:34.753Z,88959.78
2023-01-13T21:23:19.464Z,88961.94
2023-01-13T21:26:04.398Z,88970.38
2023-01-13T21:28:49.081Z,88972.75
2023-01-13T21:31:33.793Z,88970.84
2023-01-13T21:34:18.518Z,88971.13
2023-01-13T21:37:03.448Z,88977.00
2023-01-13T21:39:48.140Z,88977.22
2023-01-13T21:42:32.963Z,88982.41
2023-01-13T21:45:17.999Z,88985.44
2023-01-13T21:48:02.766Z,88976.75
2023-01-13T21:50:47.683Z,88977.47
2023-01-13T21:53:32.307Z,88976.28
2023-01-13T21:56:17.294Z,88978.41
2023-01-13T21:59:01.909Z,88976.75
2023-01-13T22:02:22.980Z,88985.69
2023-01-13T22:04:51.764Z,88980.75
2023-01-13T22:07:37.471Z,88975.34
2023-01-13T22:10:22.270Z,88978.41
2023-01-13T22:13:07.107Z,88974.66
2023-01-13T22:15:51.769Z,88967.34
2023-01-13T22:18:36.569Z,88980.53
2023-01-13T22:21:21.317Z,88985.00
2023-01-13T22:24:06.475Z,88990.41
2023-01-13T22:26:51.495Z,88989.47
2023-01-13T22:29:37.759Z,88989.66
2023-01-13T22:32:22.529Z,88996.28
2023-01-13T22:35:07.273Z,88996.97
2023-01-13T22:37:51.927Z,88995.81
2023-01-13T22:40:36.640Z,89001.69
2023-01-13T22:43:21.727Z,89000.53
2023-01-13T22:46:06.542Z,88997.22
2023-01-13T22:48:51.821Z,88993.47
2023-01-13T22:51:36.561Z,88997.00
2023-01-13T22:54:21.231Z,88993.69
2023-01-13T22:57:05.819Z,88989.22
2023-01-13T22:59:50.679Z,88992.97
2023-01-13T23:02:35.318Z,88984.50
2023-01-13T23:05:20.300Z,88993.69
2023-01-13T23:08:05.150Z,88992.50
2023-01-13T23:10:49.756Z,88975.56
2023-01-13T23:13:34.562Z,88970.41
2023-01-13T23:16:19.390Z,88976.03
2023-01-13T23:19:04.179Z,88974.88
2023-01-13T23:21:48.870Z,88970.41
2023-01-13T23:24:33.619Z,88964.31
2023-01-13T23:27:18.361Z,88969.00
2023-01-13T23:30:03.073Z,88973.47
2023-01-13T23:32:48.219Z,88971.34
2023-01-13T23:35:33.318Z,88977.19
2023-01-13T23:38:18.097Z,88988.00
2023-01-13T23:41:02.877Z,88990.59
2023-01-13T23:43:47.753Z,88993.66
2023-01-13T23:46:32.504Z,88991.06
2023-01-13T23:49:17.835Z,88994.31
2023-01-13T23:52:02.540Z,88993.59
2023-01-13T23:54:47.356Z,88994.53
2023-01-13T23:57:32.019Z,88991.50
